createdAt,value
2018-10-06T00:01:16.533Z,8.20
2018-10-06T00:03:46.342Z,7.27
2018-10-06T00:06:14.702Z,6.80
2018-10-06T00:08:48.980Z,7.33
2018-10-06T00:11:24.895Z,7.57
2018-10-06T00:13:53.195Z,7.37
2018-10-06T00:16:23.152Z,7.57
2018-10-06T00:18:52.360Z,7.53
2018-10-06T00:21:22.956Z,6.73
2018-10-06T00:23:51.529Z,7.20
2018-10-06T00:26:22.016Z,7.20
2018-10-06T00:28:50.317Z,6.80
2018-10-06T00:31:18.425Z,7.03
2018-10-06T00:33:48.103Z,6.73
2018-10-06T00:36:18.362Z,7.37
2018-10-06T00:39:24.762Z,7.23
2018-10-06T00:42:18.026Z,6.07
2018-10-06T00:44:51.978Z,7.27
2018-10-06T00:53:18.152Z,7.93
2018-10-06T00:55:48.691Z,6.73
2018-10-06T00:58:18.797Z,7.20
2018-10-06T01:00:47.196Z,7.07
2018-10-06T01:03:45.417Z,7.43
2018-10-06T01:06:14.037Z,6.67
2018-10-06T01:08:43.658Z,6.90
2018-10-06T01:11:11.820Z,7.43
2018-10-06T01:13:41.958Z,7.40
2018-10-06T01:16:11.496Z,7.93
2018-10-06T01:18:39.753Z,8.03
2018-10-06T01:21:13.206Z,8.30
2018-10-06T01:23:42.086Z,7.90
2018-10-06T01:26:12.060Z,7.57
2018-10-06T01:28:42.323Z,7.70
2018-10-06T01:31:11.083Z,7.27
2018-10-06T01:33:44.831Z,8.03
2018-10-06T01:36:13.670Z,7.43
2018-10-06T01:38:44.601Z,7.87
2018-10-06T01:41:13.358Z,7.60
2018-10-06T01:43:44.665Z,7.97
2018-10-06T01:46:16.118Z,7.07
2018-10-06T01:48:45.304Z,9.67
2018-10-06T01:51:15.314Z,9.40
2018-10-06T01:53:44.240Z,10.20
2018-10-06T01:56:12.946Z,7.43
2018-10-06T01:58:41.795Z,7.43
2018-10-06T02:01:11.087Z,7.10
2018-10-06T02:03:39.178Z,7.27
2018-10-06T02:06:07.467Z,7.60
2018-10-06T02:08:35.474Z,7.33
2018-10-06T02:11:04.272Z,7.10
2018-10-06T02:13:32.368Z,7.47
2018-10-06T02:16:01.907Z,7.00
2018-10-06T02:18:30.355Z,7.83
2018-10-06T02:20:58.581Z,7.67
2018-10-06T02:23:28.048Z,7.17
2018-10-06T02:25:56.141Z,8.00
2018-10-06T02:28:24.767Z,7.87
2018-10-06T02:30:52.891Z,8.17
2018-10-06T02:33:23.795Z,8.53
2018-10-06T02:35:53.751Z,8.87
2018-10-06T02:38:22.226Z,9.20
2018-10-06T02:40:51.191Z,9.40
2018-10-06T02:43:21.142Z,8.93
2018-10-06T02:45:50.732Z,8.00
2018-10-06T02:48:23.464Z,7.53
2018-10-06T02:50:55.967Z,9.53
2018-10-06T02:53:26.159Z,7.70
2018-10-06T02:55:54.948Z,7.83
2018-10-06T02:58:24.415Z,7.13
2018-10-06T03:00:54.066Z,8.23
2018-10-06T03:03:23.255Z,8.20
2018-10-06T03:05:51.339Z,7.77
2018-10-06T03:08:19.587Z,8.10
2018-10-06T03:10:50.017Z,8.10
2018-10-06T03:13:47.013Z,7.20
2018-10-06T03:16:58.386Z,8.30
2018-10-06T03:19:26.960Z,7.60
2018-10-06T03:21:57.074Z,7.67
2018-10-06T03:24:25.169Z,7.33
2018-10-06T03:26:53.754Z,8.00
2018-10-06T03:29:23.277Z,8.30
2018-10-06T03:31:52.871Z,8.77
2018-10-06T03:34:26.163Z,9.37
2018-10-06T03:36:55.970Z,8.47
2018-10-06T03:39:24.574Z,7.00
2018-10-06T03:41:53.817Z,6.80
2018-10-06T03:44:22.079Z,7.00
2018-10-06T03:46:51.497Z,7.07
2018-10-06T03:49:22.391Z,7.30
2018-10-06T03:54:54.886Z,6.93
2018-10-06T03:57:24.134Z,5.87
2018-10-06T03:59:52.777Z,7.00
2018-10-06T04:02:22.427Z,6.87
2018-10-06T04:04:51.162Z,6.33
2018-10-06T04:07:19.837Z,6.43
2018-10-06T04:09:52.663Z,6.77
2018-10-06T04:12:21.391Z,6.47
2018-10-06T04:14:49.512Z,6.67
2018-10-06T04:17:20.392Z,6.53
2018-10-06T04:19:49.277Z,7.00
2018-10-06T04:22:18.916Z,7.43
2018-10-06T04:24:46.950Z,7.17
2018-10-06T04:27:15.525Z,6.83
2018-10-06T04:29:43.685Z,7.00
2018-10-06T04:32:13.808Z,7.00
2018-10-06T04:34:43.206Z,7.17
2018-10-06T04:37:11.332Z,6.63
2018-10-06T04:39:40.358Z,6.77
2018-10-06T04:42:09.024Z,7.10
2018-10-06T04:44:37.128Z,7.67
2018-10-06T04:50:05.426Z,6.50
2018-10-06T04:52:35.824Z,6.93
2018-10-06T04:55:05.765Z,7.30
2018-10-06T04:57:38.201Z,7.10
2018-10-06T05:00:07.865Z,7.27
2018-10-06T05:02:36.667Z,6.90
2018-10-06T05:05:04.803Z,6.33
2018-10-06T05:07:33.019Z,8.23
2018-10-06T05:10:01.713Z,6.87
2018-10-06T05:12:30.414Z,7.20
2018-10-06T05:14:59.231Z,7.00
2018-10-06T05:17:27.813Z,7.33
2018-10-06T05:19:55.974Z,7.70
2018-10-06T05:22:26.514Z,7.40
2018-10-06T05:24:54.511Z,6.93
2018-10-06T05:27:22.589Z,7.17
2018-10-06T05:29:50.649Z,7.10
2018-10-06T05:32:19.682Z,7.03
2018-10-06T05:35:21.913Z,7.57
2018-10-06T05:41:24.867Z,6.80
2018-10-06T05:43:55.088Z,6.30
2018-10-06T05:46:51.470Z,6.50
2018-10-06T05:49:46.553Z,6.03
2018-10-06T05:52:17.997Z,6.60
2018-10-06T05:54:46.531Z,6.37
2018-10-06T05:57:14.712Z,6.47
2018-10-06T05:59:43.865Z,6.57
2018-10-06T06:02:12.929Z,6.27
2018-10-06T06:04:49.816Z,6.40
2018-10-06T06:07:19.526Z,6.60
2018-10-06T06:09:50.274Z,6.93
2018-10-06T06:12:22.481Z,7.10
2018-10-06T06:14:52.285Z,7.20
2018-10-06T06:17:23.623Z,7.03
2018-10-06T06:23:53.595Z,8.80
2018-10-06T06:26:46.589Z,8.27
2018-10-06T06:29:21.773Z,9.57
2018-10-06T06:32:47.983Z,10.23
2018-10-06T06:35:21.629Z,10.17
2018-10-06T06:37:51.557Z,10.07
2018-10-06T06:40:22.988Z,10.10
2018-10-06T06:42:53.005Z,9.33
2018-10-06T06:45:21.689Z,9.07
2018-10-06T06:47:50.695Z,9.53
2018-10-06T06:50:20.664Z,9.80
2018-10-06T06:52:48.850Z,9.03
2018-10-06T06:55:18.825Z,9.70
2018-10-06T06:57:47.377Z,9.33
2018-10-06T07:00:15.601Z,9.47
2018-10-06T07:02:43.970Z,9.87
2018-10-06T07:05:13.748Z,10.37
2018-10-06T07:07:43.248Z,8.60
2018-10-06T07:10:12.007Z,8.50
2018-10-06T07:12:41.372Z,8.30
2018-10-06T07:15:10.644Z,8.40
2018-10-06T07:17:39.063Z,6.83
2018-10-06T07:20:07.554Z,7.47
2018-10-06T07:22:36.656Z,7.63
2018-10-06T07:25:05.582Z,7.67
2018-10-06T07:27:37.807Z,7.53
2018-10-06T07:30:08.430Z,7.47
2018-10-06T07:32:59.318Z,8.03
2018-10-06T07:35:44.982Z,8.40
2018-10-06T07:38:14.614Z,9.10
2018-10-06T07:40:44.309Z,8.83
2018-10-06T07:43:13.807Z,9.03
2018-10-06T07:45:42.649Z,9.63
2018-10-06T07:48:13.475Z,9.97
2018-10-06T07:50:43.079Z,10.27
2018-10-06T07:53:30.103Z,10.17
2018-10-06T07:56:04.391Z,11.50
2018-10-06T07:58:37.093Z,10.60
2018-10-06T08:01:05.937Z,10.70
2018-10-06T08:03:37.586Z,10.53
2018-10-06T08:06:07.308Z,10.00
2018-10-06T08:08:36.752Z,9.20
2018-10-06T08:11:07.484Z,9.03
2018-10-06T08:13:37.285Z,8.53
2018-10-06T08:16:07.745Z,9.27
2018-10-06T08:18:36.268Z,9.07
2018-10-06T08:21:05.852Z,9.00
2018-10-06T08:23:44.894Z,8.30
2018-10-06T08:26:17.799Z,9.03
2018-10-06T08:29:10.392Z,8.67
2018-10-06T08:32:08.652Z,8.93
2018-10-06T08:34:39.128Z,8.97
2018-10-06T08:37:09.976Z,9.43
2018-10-06T08:39:39.790Z,8.30
2018-10-06T08:42:10.758Z,9.13
2018-10-06T08:44:40.422Z,9.20
2018-10-06T08:48:09.109Z,8.57
2018-10-06T08:51:16.809Z,8.63
2018-10-06T08:53:48.652Z,8.67
2018-10-06T08:56:18.504Z,8.47
2018-10-06T08:58:47.390Z,9.90
2018-10-06T09:01:19.447Z,8.87
2018-10-06T09:03:58.661Z,8.67
2018-10-06T09:06:32.203Z,8.77
2018-10-06T09:09:03.098Z,7.90
2018-10-06T09:11:35.993Z,8.30
2018-10-06T09:14:07.384Z,7.97
2018-10-06T09:25:04.758Z,7.40
2018-10-06T09:27:37.616Z,7.10
2018-10-06T09:30:11.462Z,6.60
2018-10-06T09:32:42.415Z,6.97
2018-10-06T09:35:13.607Z,6.80
2018-10-06T09:37:45.706Z,6.90
2018-10-06T09:40:14.679Z,7.07
2018-10-06T09:42:43.931Z,5.80
2018-10-06T09:45:12.306Z,5.83
2018-10-06T09:47:42.275Z,5.63
2018-10-06T09:50:12.895Z,5.10
2018-10-06T09:52:43.761Z,5.27
2018-10-06T09:55:27.958Z,5.43
2018-10-06T09:57:57.106Z,5.60
2018-10-06T10:00:31.502Z,5.63
2018-10-06T10:04:11.947Z,5.13
2018-10-06T10:06:41.080Z,5.10
2018-10-06T10:09:17.337Z,4.57
2018-10-06T10:11:45.787Z,4.70
2018-10-06T10:14:15.294Z,5.00
2018-10-06T10:16:44.919Z,3.93
2018-10-06T10:19:13.730Z,4.37
2018-10-06T10:21:43.306Z,4.27
2018-10-06T10:24:12.251Z,3.90
2018-10-06T10:26:46.224Z,4.73
2018-10-06T10:29:18.527Z,3.58
2018-10-06T10:31:50.551Z,3.20
2018-10-06T10:34:21.651Z,3.17
2018-10-06T10:41:05.940Z,3.00
2018-10-06T10:43:35.234Z,3.30
2018-10-06T10:46:43.260Z,3.17
2018-10-06T10:55:26.806Z,3.10
2018-10-06T10:57:57.455Z,2.90
2018-10-06T11:03:20.108Z,3.13
2018-10-06T11:05:54.643Z,3.00
2018-10-06T11:08:27.308Z,2.67
2018-10-06T11:10:59.270Z,3.13
2018-10-06T11:13:32.005Z,3.13
2018-10-06T11:16:06.601Z,2.90
2018-10-06T11:19:17.156Z,3.17
2018-10-06T11:21:51.283Z,3.20
2018-10-06T11:24:22.821Z,2.93
2018-10-06T11:26:52.860Z,3.23
2018-10-06T11:29:22.785Z,2.80
2018-10-06T11:31:51.962Z,2.97
2018-10-06T11:34:26.101Z,2.80
2018-10-06T11:37:03.779Z,3.50
2018-10-06T11:39:38.415Z,3.00
2018-10-06T11:42:07.414Z,2.80
2018-10-06T11:44:36.393Z,3.10
2018-10-06T11:47:05.342Z,2.60
2018-10-06T11:49:33.437Z,3.07
2018-10-06T11:52:06.819Z,2.97
2018-10-06T11:54:39.474Z,3.10
2018-10-06T11:57:11.014Z,2.57
2018-10-06T11:59:40.269Z,2.73
2018-10-06T12:02:08.890Z,2.87
2018-10-06T12:04:40.397Z,2.80
2018-10-06T12:07:09.873Z,2.80
2018-10-06T12:09:39.670Z,2.80
2018-10-06T12:12:09.159Z,2.90
2018-10-06T12:15:44.031Z,3.00
2018-10-06T12:18:20.225Z,2.87
2018-10-06T12:20:51.183Z,2.70
2018-10-06T12:23:21.089Z,2.90
2018-10-06T12:26:03.423Z,2.90
2018-10-06T12:28:32.942Z,2.90
2018-10-06T12:31:37.393Z,2.83
2018-10-06T12:34:08.387Z,3.60
2018-10-06T12:43:06.505Z,3.33
2018-10-06T12:45:38.659Z,2.90
2018-10-06T12:48:09.002Z,2.77
2018-10-06T12:51:08.408Z,3.30
2018-10-06T12:53:45.114Z,2.80
2018-10-06T12:59:52.663Z,2.60
2018-10-06T13:02:22.770Z,2.77
2018-10-06T13:08:16.690Z,2.90
2018-10-06T13:10:54.318Z,2.90
2018-10-06T13:13:25.424Z,3.43
2018-10-06T13:16:03.280Z,2.67
2018-10-06T13:18:36.797Z,3.23
2018-10-06T13:24:56.830Z,3.27
2018-10-06T13:27:29.762Z,3.17
2018-10-06T13:29:59.427Z,2.90
2018-10-06T13:32:27.604Z,2.83
2018-10-06T13:39:01.282Z,2.83
2018-10-06T13:41:30.911Z,3.10
2018-10-06T13:44:00.747Z,3.20
2018-10-06T13:46:31.526Z,3.47
2018-10-06T13:49:04.446Z,3.43
2018-10-06T13:51:48.333Z,3.40
2018-10-06T13:54:18.524Z,3.67
2018-10-06T13:56:48.804Z,3.83
2018-10-06T13:59:17.840Z,3.90
2018-10-06T14:01:48.828Z,4.40
2018-10-06T14:04:19.592Z,4.00
2018-10-06T14:07:12.490Z,3.87
2018-10-06T14:13:08.620Z,3.03
2018-10-06T14:15:41.110Z,2.60
2018-10-06T14:18:18.872Z,3.40
2018-10-06T14:21:24.991Z,3.13
2018-10-06T14:23:54.161Z,2.87
2018-10-06T14:26:22.891Z,3.20
2018-10-06T14:33:00.898Z,3.17
2018-10-06T14:35:30.260Z,3.10
2018-10-06T14:37:58.537Z,2.83
2018-10-06T14:40:54.826Z,3.40
2018-10-06T14:43:45.524Z,3.17
2018-10-06T14:46:16.310Z,3.60
2018-10-06T14:48:48.719Z,3.07
2018-10-06T14:55:36.738Z,3.63
2018-10-06T14:58:08.743Z,3.50
2018-10-06T15:07:07.971Z,3.57
2018-10-06T15:12:25.649Z,3.00
2018-10-06T15:18:21.319Z,3.40
2018-10-06T15:20:50.785Z,3.57
2018-10-06T15:23:46.750Z,3.40
2018-10-06T15:26:18.048Z,3.60
2018-10-06T15:28:51.250Z,3.10
2018-10-06T15:31:28.121Z,3.70
2018-10-06T15:34:01.993Z,3.30
2018-10-06T15:36:35.234Z,3.00
2018-10-06T15:39:06.781Z,3.67
2018-10-06T15:41:35.395Z,3.90
2018-10-06T15:44:40.604Z,4.10
2018-10-06T15:50:33.894Z,3.70
2018-10-06T15:53:06.307Z,4.50
2018-10-06T15:56:06.669Z,4.43
2018-10-06T15:59:05.797Z,4.20
2018-10-06T16:01:37.498Z,3.50
2018-10-06T16:04:06.541Z,3.57
2018-10-06T16:06:42.502Z,4.00
2018-10-06T16:09:25.487Z,3.67
2018-10-06T16:11:58.050Z,3.83
2018-10-06T16:14:27.708Z,4.07
2018-10-06T16:16:59.069Z,4.20
2018-10-06T16:20:23.623Z,4.30
2018-10-06T16:23:23.737Z,4.10
2018-10-06T16:26:03.454Z,5.47
2018-10-06T16:28:46.779Z,4.73
2018-10-06T16:31:20.504Z,4.53
2018-10-06T16:33:48.730Z,4.37
2018-10-06T16:36:18.976Z,4.87
2018-10-06T16:38:52.520Z,5.20
2018-10-06T16:41:24.346Z,4.77
2018-10-06T16:43:55.702Z,5.20
2018-10-06T16:46:35.295Z,5.50
2018-10-06T16:49:13.536Z,6.77
2018-10-06T16:55:53.503Z,5.30
2018-10-06T17:04:26.762Z,7.27
2018-10-06T17:06:55.015Z,6.53
2018-10-06T17:09:25.414Z,6.60
2018-10-06T17:11:54.947Z,7.07
2018-10-06T17:14:24.977Z,7.77
2018-10-06T17:16:56.108Z,6.33
2018-10-06T17:19:26.751Z,8.33
2018-10-06T17:22:23.894Z,10.33
2018-10-06T17:24:54.508Z,10.90
2018-10-06T17:27:23.892Z,9.40
2018-10-06T17:29:56.713Z,9.17
2018-10-06T17:32:33.763Z,6.13
2018-10-06T17:35:03.272Z,7.63
2018-10-06T17:37:37.792Z,7.10
2018-10-06T17:40:19.231Z,8.17
2018-10-06T17:43:00.961Z,6.83
2018-10-06T17:48:19.151Z,6.87
2018-10-06T17:51:06.571Z,6.80
2018-10-06T17:53:38.063Z,9.60
2018-10-06T18:00:01.186Z,7.50
2018-10-06T18:09:25.809Z,7.20
2018-10-06T18:12:03.584Z,6.90
2018-10-06T18:14:43.025Z,7.27
2018-10-06T18:17:16.167Z,6.97
2018-10-06T18:19:45.358Z,7.17
2018-10-06T18:22:15.096Z,6.00
2018-10-06T18:24:46.556Z,7.03
2018-10-06T18:27:15.989Z,6.47
2018-10-06T18:29:45.902Z,7.27
2018-10-06T18:32:19.839Z,7.97
2018-10-06T18:34:54.111Z,7.93
2018-10-06T18:37:26.438Z,8.20
2018-10-06T18:39:56.926Z,9.07
2018-10-06T18:42:27.703Z,6.93
2018-10-06T18:44:58.967Z,7.33
2018-10-06T18:47:33.948Z,7.93
2018-10-06T18:50:07.785Z,7.37
2018-10-06T18:52:36.896Z,6.90
2018-10-06T18:55:11.974Z,8.07
2018-10-06T18:58:02.613Z,7.10
2018-10-06T19:04:01.620Z,7.63
2018-10-06T19:06:38.365Z,8.00
2018-10-06T19:09:15.185Z,8.10
2018-10-06T19:12:16.104Z,8.73
2018-10-06T19:14:44.575Z,8.37
2018-10-06T19:17:15.550Z,7.57
2018-10-06T19:19:45.919Z,8.00
2018-10-06T19:22:20.689Z,7.97
2018-10-06T19:24:55.999Z,7.80
2018-10-06T19:27:31.343Z,7.77
2018-10-06T19:30:12.669Z,7.30
2018-10-06T19:32:44.744Z,7.80
2018-10-06T19:35:19.614Z,7.10
2018-10-06T19:41:23.806Z,6.93
2018-10-06T19:43:56.369Z,7.90
2018-10-06T19:46:26.923Z,7.50
2018-10-06T19:49:04.117Z,8.00
2018-10-06T19:52:33.174Z,8.03
2018-10-06T20:01:46.292Z,7.90
2018-10-06T20:04:19.011Z,7.50
2018-10-06T20:06:50.532Z,7.73
2018-10-06T20:09:22.652Z,8.27
2018-10-06T20:12:24.233Z,7.67
2018-10-06T20:14:54.015Z,7.50
2018-10-06T20:21:14.455Z,7.57
2018-10-06T20:23:48.413Z,7.27
2018-10-06T20:26:16.838Z,7.30
2018-10-06T20:28:47.032Z,7.50
2018-10-06T20:31:19.282Z,6.97
2018-10-06T20:33:48.774Z,7.27
2018-10-06T20:36:45.129Z,7.17
2018-10-06T20:39:13.916Z,7.23
2018-10-06T20:41:43.358Z,7.13
2018-10-06T20:44:12.343Z,7.10
2018-10-06T20:46:41.415Z,7.33
2018-10-06T20:49:11.511Z,7.47
2018-10-06T20:51:52.765Z,7.03
2018-10-06T20:55:09.541Z,6.47
2018-10-06T20:57:40.703Z,6.70
2018-10-06T21:00:16.116Z,6.77
2018-10-06T21:02:53.136Z,6.87
2018-10-06T21:05:25.012Z,6.37
2018-10-06T21:07:56.860Z,6.80
2018-10-06T21:10:25.381Z,6.37
2018-10-06T21:12:55.326Z,6.83
2018-10-06T21:15:40.425Z,6.53
2018-10-06T21:18:14.701Z,7.17
2018-10-06T21:20:43.799Z,6.53
2018-10-06T21:23:13.687Z,7.13
2018-10-06T21:25:47.111Z,6.07
2018-10-06T21:28:19.240Z,6.70
2018-10-06T21:30:49.372Z,7.07
2018-10-06T21:33:17.624Z,7.27
2018-10-06T21:35:47.227Z,6.63
2018-10-06T21:38:42.835Z,6.57
2018-10-06T21:41:12.019Z,6.27
2018-10-06T21:43:57.566Z,7.17
2018-10-06T21:46:28.520Z,7.07
2018-10-06T21:49:00.072Z,9.63
2018-10-06T21:51:31.406Z,8.03
2018-10-06T21:54:03.929Z,8.00
2018-10-06T21:56:37.374Z,7.10
2018-10-06T21:59:06.387Z,7.47
2018-10-06T22:01:35.842Z,7.73
2018-10-06T22:04:06.409Z,7.50
2018-10-06T22:06:39.627Z,7.47
2018-10-06T22:09:12.158Z,7.10
2018-10-06T22:11:43.475Z,6.30
2018-10-06T22:14:17.233Z,6.87
2018-10-06T22:16:46.896Z,7.03
2018-10-06T22:19:18.713Z,7.20
2018-10-06T22:22:30.415Z,7.07
2018-10-06T22:25:06.259Z,7.33
2018-10-06T22:27:34.951Z,6.90
2018-10-06T22:30:06.194Z,10.23
2018-10-06T22:32:35.234Z,9.80
2018-10-06T22:35:04.425Z,7.10
2018-10-06T22:37:34.787Z,6.93
2018-10-06T22:40:05.903Z,6.37
2018-10-06T22:42:35.630Z,6.93
2018-10-06T22:45:06.497Z,6.37
2018-10-06T22:47:35.130Z,6.77
2018-10-06T22:50:06.453Z,6.93
2018-10-06T22:52:36.007Z,7.50
2018-10-06T22:55:15.963Z,7.93
2018-10-06T22:58:01.023Z,6.67
2018-10-06T23:00:33.424Z,6.80
2018-10-06T23:03:04.324Z,7.20
2018-10-06T23:09:17.262Z,7.17
2018-10-06T23:11:49.072Z,7.10
2018-10-06T23:14:18.582Z,7.53
2018-10-06T23:20:03.150Z,7.60
2018-10-06T23:22:34.891Z,7.73
2018-10-06T23:25:08.875Z,7.20
2018-10-06T23:27:38.198Z,7.53
2018-10-06T23:30:10.893Z,7.97
2018-10-06T23:32:41.825Z,7.87
2018-10-06T23:35:10.221Z,7.97
2018-10-06T23:37:40.124Z,8.47
2018-10-06T23:40:10.768Z,8.10
2018-10-06T23:42:39.976Z,8.90
2018-10-06T23:45:08.288Z,7.83
2018-10-06T23:47:38.549Z,8.97
2018-10-06T23:50:07.859Z,7.90
2018-10-06T23:52:38.262Z,8.90
2018-10-06T23:55:11.377Z,8.60
2018-10-06T23:57:42.409Z,8.57
